Time;durP1;ratioP1;P1;durP2;ratioP2;P2;SDS_P1;SDS_P2;PMS_P1;PMS_P2;Temp;Humidity;BMP_temperature;BMP_pressure;BME280_temperature;BME280_humidity;BME280_pressure;Samples;Min_cycle;Max_cycle;Signal;HPM_P1;HPM_P2
2022/05/05 00:00:12;;;;;;;15.02;9.73;;;;;;;9.21;83.28;101804.59;5244297;28;20033;-64
2022/05/05 00:02:44;;;;;;;14.13;8.68;;;;;;;9.20;86.34;101813.56;5243835;28;20577;-64
2022/05/05 00:05:15;;;;;;;16.73;10.02;;;;;;;9.14;84.16;101811.22;5246434;28;20068;-63
2022/05/05 00:07:46;;;;;;;15.07;9.05;;;;;;;9.16;86.50;101817.31;5244755;28;20040;-63
2022/05/05 00:15:57;;;;;;;15.90;10.15;;;;;;;9.13;86.22;101812.16;5245451;28;20061;-63
2022/05/05 00:18:28;;;;;;;16.02;9.68;;;;;;;9.11;87.84;101816.72;5246983;28;20471;-63
2022/05/05 00:21:00;;;;;;;14.27;10.00;;;;;;;8.97;86.55;101816.59;5241781;28;20614;-64
2022/05/05 00:23:31;;;;;;;16.90;10.60;;;;;;;8.96;85.91;101815.75;5245356;28;20390;-64
2022/05/05 00:26:02;;;;;;;16.73;10.00;;;;;;;8.94;87.27;101816.78;5244327;28;20025;-64
2022/05/05 00:28:33;;;;;;;15.60;9.80;;;;;;;8.88;86.96;101811.75;5247753;28;20037;-63
2022/05/05 00:31:05;;;;;;;17.33;9.57;;;;;;;8.89;89.34;101813.50;5245107;28;20789;-63
2022/05/05 00:33:36;;;;;;;16.45;10.38;;;;;;;8.86;87.57;101811.88;5250702;28;20509;-63
2022/05/05 00:36:07;;;;;;;17.52;9.93;;;;;;;8.73;88.40;101814.31;5246369;28;20442;-63
2022/05/05 00:38:38;;;;;;;17.80;10.88;;;;;;;8.78;89.92;101808.75;5252341;28;20112;-63
2022/05/05 00:41:10;;;;;;;15.43;9.70;;;;;;;8.78;89.71;101811.41;5246291;28;20454;-63
2022/05/05 00:43:41;;;;;;;13.02;9.68;;;;;;;8.68;89.22;101804.88;5250006;28;20482;-63
2022/05/05 00:46:13;;;;;;;15.77;9.90;;;;;;;8.74;89.79;101796.53;5248752;28;20056;-63
2022/05/05 00:48:44;;;;;;;18.10;10.55;;;;;;;8.73;89.35;101805.50;5251787;28;20060;-63
2022/05/05 00:51:15;;;;;;;17.08;10.65;;;;;;;8.70;89.83;101802.97;5243493;28;20073;-63
2022/05/05 00:53:46;;;;;;;17.13;11.23;;;;;;;8.70;90.17;101809.16;5247330;28;20029;-63
2022/05/05 00:56:18;;;;;;;16.83;10.55;;;;;;;8.67;89.20;101805.78;5245638;28;20308;-63
2022/05/05 00:58:53;;;;;;;17.67;10.10;;;;;;;8.68;90.19;101800.41;5251514;28;20037;-63
2022/05/05 01:01:24;;;;;;;17.33;10.80;;;;;;;8.67;89.58;101803.13;5245067;28;20029;-63
2022/05/05 01:03:55;;;;;;;16.83;10.32;;;;;;;8.69;88.94;101802.13;5250227;28;20083;-63
2022/05/05 01:06:28;;;;;;;14.30;9.60;;;;;;;8.71;89.39;101802.06;5248124;28;20037;-63
2022/05/05 01:08:59;;;;;;;19.85;10.38;;;;;;;8.71;89.88;101799.38;5245198;28;20040;-63
2022/05/05 01:11:31;;;;;;;17.25;10.80;;;;;;;8.74;89.61;101808.03;5247886;28;20498;-64
2022/05/05 01:14:03;;;;;;;16.48;9.48;;;;;;;8.75;87.78;101803.59;5248844;28;20049;-64
2022/05/05 01:16:34;;;;;;;17.80;9.82;;;;;;;8.68;87.21;101811.03;5246519;28;20120;-63
2022/05/05 01:19:06;;;;;;;16.00;9.27;;;;;;;8.66;87.13;101806.75;5248931;28;20039;-63
2022/05/05 01:21:37;;;;;;;17.45;10.38;;;;;;;8.71;87.59;101804.72;5253866;28;20087;-63
2022/05/05 01:24:08;;;;;;;14.95;10.20;;;;;;;8.81;91.53;101798.78;5256892;28;20138;-63
2022/05/05 01:29:29;;;;;;;16.88;10.18;;;;;;;8.82;91.55;101797.88;5245541;28;20089;-63
2022/05/05 01:32:01;;;;;;;17.50;10.27;;;;;;;8.74;88.86;101792.06;5247420;28;20442;-63
2022/05/05 01:34:32;;;;;;;17.33;9.85;;;;;;;8.74;87.11;101800.06;5249134;28;20040;-63
2022/05/05 01:37:03;;;;;;;16.05;10.00;;;;;;;8.85;88.76;101794.16;5245771;28;20128;-63
2022/05/05 01:39:35;;;;;;;16.50;10.50;;;;;;;8.88;90.13;101802.00;5248066;28;20482;-63
2022/05/05 01:42:06;;;;;;;14.15;9.75;;;;;;;8.86;88.80;101800.34;5246067;28;20089;-63
2022/05/05 01:44:37;;;;;;;15.63;9.68;;;;;;;8.85;88.72;101796.84;5247128;28;20037;-63
2022/05/05 01:47:09;;;;;;;15.85;9.55;;;;;;;8.86;86.57;101797.69;5245000;28;20119;-63
2022/05/05 01:49:40;;;;;;;16.55;9.90;;;;;;;8.89;87.46;101802.84;5246995;28;20041;-63
2022/05/05 01:52:12;;;;;;;15.40;10.18;;;;;;;8.93;88.15;101799.94;5248158;28;20037;-63
2022/05/05 01:54:43;;;;;;;21.20;10.70;;;;;;;8.96;88.64;101801.59;5248938;28;20115;-63
2022/05/05 01:57:14;;;;;;;15.93;9.90;;;;;;;9.01;87.59;101803.06;5248086;28;20033;-63
2022/05/05 01:59:45;;;;;;;16.48;10.45;;;;;;;9.00;87.22;101805.78;5247158;28;20031;-63
2022/05/05 02:02:17;;;;;;;15.68;9.77;;;;;;;9.06;88.71;101804.59;5246556;28;20687;-63
2022/05/05 02:04:50;;;;;;;16.45;9.90;;;;;;;9.01;88.85;101811.03;5245620;28;20037;-63
2022/05/05 02:07:21;;;;;;;15.57;10.30;;;;;;;9.11;88.68;101811.41;5242278;28;20083;-63
2022/05/05 02:09:52;;;;;;;14.82;9.82;;;;;;;9.08;88.35;101806.22;5248604;28;20063;-63
2022/05/05 02:12:24;;;;;;;19.48;10.93;;;;;;;9.14;90.17;101808.53;5241547;28;20028;-63
2022/05/05 02:14:55;;;;;;;14.73;9.45;;;;;;;9.19;90.73;101811.81;5248528;28;20052;-63
2022/05/05 02:17:26;;;;;;;15.52;10.52;;;;;;;9.10;88.94;101812.31;5244119;28;20036;-63
2022/05/05 02:20:00;;;;;;;17.90;9.95;;;;;;;9.21;89.67;101814.41;5246023;28;20841;-63
2022/05/05 02:22:32;;;;;;;16.95;9.15;;;;;;;9.27;87.40;101810.56;5243260;28;20032;-63
2022/05/05 02:25:03;;;;;;;16.20;10.15;;;;;;;9.19;87.47;101809.16;5245847;28;20490;-63
2022/05/05 02:27:45;;;;;;;14.95;9.40;;;;;;;9.28;87.93;101820.25;5248032;28;20471;-63
2022/05/05 02:30:22;;;;;;;18.02;9.88;;;;;;;9.30;89.45;101816.56;5245908;28;20095;-63
2022/05/05 02:32:54;;;;;;;17.65;10.43;;;;;;;9.33;88.03;101816.38;5251318;28;20029;-63
2022/05/05 02:35:25;;;;;;;16.45;9.98;;;;;;;9.29;86.64;101817.50;5245951;28;20116;-63
2022/05/05 02:40:47;;;;;;;15.15;9.93;;;;;;;9.31;87.19;101818.28;5241981;28;20141;-63
2022/05/05 02:43:18;;;;;;;16.75;9.88;;;;;;;9.32;87.21;101813.78;5247771;28;20133;-63
2022/05/05 02:45:49;;;;;;;15.35;9.77;;;;;;;9.30;87.19;101816.56;5246966;28;20502;-63
2022/05/05 02:48:20;;;;;;;14.40;9.38;;;;;;;9.33;87.74;101816.38;5243009;28;20036;-63
2022/05/05 02:50:52;;;;;;;15.35;9.90;;;;;;;9.32;87.48;101817.34;5247153;28;20044;-63
2022/05/05 02:56:13;;;;;;;15.82;10.23;;;;;;;9.26;88.50;101808.81;5249444;28;20045;-63
2022/05/05 02:58:44;;;;;;;16.70;10.57;;;;;;;9.25;88.51;101823.09;5242995;28;20037;-63
2022/05/05 03:01:15;;;;;;;22.23;10.55;;;;;;;9.21;89.13;101817.91;5246994;28;20033;-63
2022/05/05 03:03:46;;;;;;;16.20;9.88;;;;;;;9.18;89.82;101812.75;5246519;28;20090;-63
2022/05/05 03:06:18;;;;;;;18.38;10.32;;;;;;;9.16;89.72;101808.47;5248755;28;20025;-63
2022/05/05 03:08:49;;;;;;;19.33;10.60;;;;;;;9.25;90.70;101809.78;5243276;28;20216;-63
2022/05/05 03:11:20;;;;;;;15.52;10.20;;;;;;;9.32;89.37;101819.13;5245961;28;20055;-63
2022/05/05 03:13:51;;;;;;;14.43;9.65;;;;;;;9.22;90.03;101805.47;5244922;28;20495;-64
2022/05/05 03:16:23;;;;;;;16.08;9.93;;;;;;;9.32;91.23;101806.69;5246722;28;20406;-63
2022/05/05 03:18:54;;;;;;;15.23;9.88;;;;;;;9.26;90.23;101804.34;5245931;28;20174;-63
2022/05/05 03:21:25;;;;;;;16.58;10.18;;;;;;;9.26;89.94;101816.81;5244213;28;20040;-63
2022/05/05 03:23:56;;;;;;;17.65;10.43;;;;;;;9.27;91.47;101813.22;5248893;28;20024;-64
2022/05/05 03:26:28;;;;;;;14.52;9.55;;;;;;;9.17;88.89;101818.19;5245791;28;20028;-63
2022/05/05 03:28:59;;;;;;;17.92;9.77;;;;;;;9.15;88.62;101818.28;5260017;28;20033;-63
2022/05/05 03:31:32;;;;;;;16.95;9.88;;;;;;;9.12;88.54;101821.09;5245423;28;20028;-63
2022/05/05 03:34:04;;;;;;;14.02;9.85;;;;;;;9.12;88.86;101821.09;5246636;28;20368;-63
2022/05/05 03:36:35;;;;;;;16.45;10.35;;;;;;;9.13;89.37;101819.31;5246044;28;20087;-63
2022/05/05 03:39:07;;;;;;;16.08;10.50;;;;;;;9.25;91.55;101823.94;5244917;28;20112;-63
2022/05/05 03:41:38;;;;;;;17.60;10.10;;;;;;;9.16;90.37;101821.78;5245193;28;20032;-63
2022/05/05 03:44:09;;;;;;;15.80;10.27;;;;;;;9.14;89.57;101827.19;5246257;28;20068;-63
2022/05/05 03:46:41;;;;;;;17.23;10.60;;;;;;;9.13;89.95;101825.47;5244962;28;20044;-63
2022/05/05 03:49:12;;;;;;;16.98;10.98;;;;;;;9.14;90.23;101827.19;5246006;28;20438;-63
2022/05/05 03:51:44;;;;;;;18.42;10.60;;;;;;;9.19;90.57;101825.13;5246565;28;20039;-63
2022/05/05 03:54:15;;;;;;;20.40;11.18;;;;;;;9.18;90.42;101833.22;5244246;28;20033;-63
2022/05/05 03:56:47;;;;;;;15.98;10.80;;;;;;;9.24;91.43;101832.88;5244842;28;20044;-63
2022/05/05 03:59:18;;;;;;;16.90;10.70;;;;;;;9.30;90.67;101829.00;5245038;28;20038;-63
2022/05/05 04:01:50;;;;;;;16.45;10.50;;;;;;;9.35;91.27;101830.47;5243045;28;20067;-63
2022/05/05 04:04:21;;;;;;;17.05;10.48;;;;;;;9.32;89.26;101835.09;5242630;28;20545;-63
2022/05/05 04:06:53;;;;;;;17.30;10.88;;;;;;;9.34;88.95;101844.75;5246815;28;20581;-64
2022/05/05 04:09:24;;;;;;;15.73;10.27;;;;;;;9.36;88.34;101837.53;5250862;28;20033;-63
2022/05/05 04:11:55;;;;;;;18.58;11.52;;;;;;;9.40;89.49;101838.22;5247739;28;20044;-63
2022/05/05 04:14:27;;;;;;;16.55;10.60;;;;;;;9.45;89.49;101840.63;5250331;28;20045;-64
2022/05/05 04:16:58;;;;;;;19.27;11.27;;;;;;;9.42;88.21;101844.31;5247299;28;20033;-63
2022/05/05 04:19:29;;;;;;;18.45;11.18;;;;;;;9.47;87.88;101847.56;5262917;28;20074;-63
2022/05/05 04:22:00;;;;;;;19.60;11.02;;;;;;;9.46;88.05;101853.00;5249425;28;20033;-63
2022/05/05 04:24:32;;;;;;;16.48;10.93;;;;;;;9.51;89.72;101851.81;5246765;28;20446;-63
2022/05/05 04:27:03;;;;;;;18.27;10.52;;;;;;;9.46;87.15;101851.19;5250449;28;20037;-63
2022/05/05 04:29:35;;;;;;;18.38;11.07;;;;;;;9.54;89.51;101854.28;5249987;28;20029;-63
2022/05/05 04:32:07;;;;;;;18.70;10.95;;;;;;;9.52;87.39;101853.50;5245687;28;20033;-63
2022/05/05 04:34:39;;;;;;;20.90;11.73;;;;;;;9.59;88.40;101857.56;5250054;28;20570;-63
2022/05/05 04:37:11;;;;;;;18.10;11.25;;;;;;;9.58;87.80;101862.97;5250629;28;20029;-63
2022/05/05 04:39:42;;;;;;;18.27;11.32;;;;;;;9.57;87.60;101866.59;5252156;28;20033;-63
2022/05/05 04:42:14;;;;;;;17.60;11.18;;;;;;;9.59;86.93;101865.56;5250861;28;20040;-63
2022/05/05 04:44:45;;;;;;;18.83;11.10;;;;;;;9.59;87.00;101864.69;5249386;28;20051;-63
2022/05/05 04:47:17;;;;;;;18.05;11.27;;;;;;;9.64;87.68;101861.75;5246130;28;20033;-63
2022/05/05 04:49:48;;;;;;;18.58;11.43;;;;;;;9.64;88.22;101869.75;5247100;28;20024;-63
2022/05/05 04:52:19;;;;;;;19.02;11.95;;;;;;;9.67;87.78;101867.78;5254498;28;20546;-63
2022/05/05 04:54:51;;;;;;;17.35;11.50;;;;;;;9.69;87.95;101867.69;5247659;28;20043;-63
2022/05/05 04:57:22;;;;;;;19.40;12.23;;;;;;;9.76;91.29;101867.28;5246503;28;20029;-63
2022/05/05 04:59:54;;;;;;;18.02;12.05;;;;;;;9.81;91.40;101869.66;5246160;28;20172;-63
2022/05/05 05:02:25;;;;;;;17.25;10.63;;;;;;;9.94;88.72;101876.00;5247479;28;20033;-63
2022/05/05 05:04:56;;;;;;;17.52;10.95;;;;;;;9.80;88.80;101874.13;5250907;28;20037;-63
2022/05/05 05:07:27;;;;;;;18.70;10.75;;;;;;;9.81;91.09;101885.66;5247820;28;20176;-63
2022/05/05 05:09:59;;;;;;;17.23;11.05;;;;;;;9.84;91.36;101885.50;5246393;28;20044;-63
2022/05/05 05:12:30;;;;;;;16.70;10.40;;;;;;;9.94;91.04;101886.69;5255914;28;20028;-63
2022/05/05 05:15:02;;;;;;;14.90;10.77;;;;;;;10.02;89.50;101886.22;5251888;28;20068;-63
2022/05/05 05:17:34;;;;;;;17.00;11.52;;;;;;;10.07;89.21;101891.28;5258804;28;20085;-63
2022/05/05 05:20:06;;;;;;;17.70;11.05;;;;;;;10.01;90.55;101890.72;5259132;28;20032;-63
2022/05/05 05:22:37;;;;;;;15.55;11.18;;;;;;;10.01;91.43;101897.88;5252455;28;20028;-63
2022/05/05 05:25:09;;;;;;;16.17;10.63;;;;;;;9.92;90.10;101893.06;5252143;28;20554;-63
2022/05/05 05:27:40;;;;;;;15.98;10.98;;;;;;;9.95;90.83;101904.41;5248264;28;20554;-63
2022/05/05 05:30:11;;;;;;;17.83;11.18;;;;;;;9.98;90.55;101904.22;5250744;28;20094;-63
2022/05/05 05:32:43;;;;;;;17.05;10.73;;;;;;;9.98;90.86;101908.69;5264831;28;20032;-63
2022/05/05 05:35:14;;;;;;;19.60;11.63;;;;;;;9.97;92.16;101897.19;5248921;28;20128;-63
2022/05/05 05:37:45;;;;;;;18.10;11.13;;;;;;;9.96;90.28;101905.25;5261766;28;20029;-63
2022/05/05 05:40:17;;;;;;;18.70;11.65;;;;;;;9.91;89.42;101910.81;5256175;28;20487;-63
2022/05/05 05:42:48;;;;;;;20.35;11.27;;;;;;;9.89;89.26;101902.06;5251615;28;20044;-63
2022/05/05 05:45:19;;;;;;;22.85;12.40;;;;;;;9.90;89.33;101910.94;5255826;28;20383;-63
2022/05/05 05:47:51;;;;;;;18.20;11.85;;;;;;;9.90;89.28;101911.78;5265546;28;20510;-63
2022/05/05 05:50:22;;;;;;;19.00;11.80;;;;;;;9.94;88.39;101913.34;5247963;28;20123;-63
2022/05/05 05:52:54;;;;;;;19.77;12.00;;;;;;;9.94;88.59;101907.16;5244349;28;20116;-63
2022/05/05 05:55:26;;;;;;;20.38;12.18;;;;;;;10.02;88.51;101910.22;5252577;28;20037;-63
2022/05/05 05:58:00;;;;;;;21.98;12.63;;;;;;;10.02;91.16;101915.56;5258452;28;20044;-63
2022/05/05 06:00:32;;;;;;;;;;;;;;;10.15;88.73;101923.72;5254451;28;20025;-63
2022/05/05 06:05:54;;;;;;;24.30;12.23;;;;;;;10.18;87.92;101921.75;5244959;28;20044;-63
2022/05/05 06:08:25;;;;;;;19.55;12.48;;;;;;;10.20;89.20;101924.31;5252777;28;20032;-63
2022/05/05 06:10:56;;;;;;;21.02;12.18;;;;;;;10.30;88.34;101930.00;5252380;28;20044;-63
2022/05/05 06:13:28;;;;;;;24.65;12.60;;;;;;;10.32;88.03;101928.97;5257185;28;20040;-64
2022/05/05 06:15:59;;;;;;;25.27;13.10;;;;;;;10.41;91.23;101927.56;5255528;28;20044;-63
2022/05/05 06:18:31;;;;;;;25.38;13.48;;;;;;;10.46;92.99;101933.50;5253751;28;20063;-63
2022/05/05 06:21:02;;;;;;;29.02;13.52;;;;;;;10.45;92.02;101929.13;5254765;28;20037;-63
2022/05/05 06:23:33;;;;;;;25.50;13.57;;;;;;;10.49;92.85;101930.66;5253255;28;20068;-63
2022/05/05 06:26:05;;;;;;;23.50;13.85;;;;;;;10.57;93.68;101927.53;5252917;28;20028;-63
2022/05/05 06:28:36;;;;;;;25.50;13.95;;;;;;;10.61;90.33;101931.75;5248563;28;20046;-63
2022/05/05 06:31:07;;;;;;;23.02;13.52;;;;;;;10.71;87.68;101940.06;5251148;28;20028;-63
2022/05/05 06:33:39;;;;;;;27.67;13.80;;;;;;;10.80;87.87;101934.19;5246484;28;20146;-63
2022/05/05 06:36:10;;;;;;;21.92;13.10;;;;;;;10.99;85.79;101942.78;5238356;28;20032;-63
2022/05/05 06:38:41;;;;;;;21.17;12.48;;;;;;;11.09;88.52;101932.41;5250599;28;20085;-63
2022/05/05 06:41:13;;;;;;;23.63;12.55;;;;;;;11.21;83.78;101932.59;5253385;28;20060;-63
2022/05/05 06:43:44;;;;;;;22.35;12.93;;;;;;;11.29;86.29;101939.19;5252187;28;20030;-63
2022/05/05 06:46:16;;;;;;;20.95;12.60;;;;;;;11.38;80.50;101937.75;5250064;28;20025;-63
2022/05/05 06:48:47;;;;;;;24.45;12.70;;;;;;;11.53;79.81;101934.13;5246187;28;20435;-63
2022/05/05 06:51:18;;;;;;;23.27;13.13;;;;;;;11.66;78.19;101933.34;5248196;28;20032;-63
2022/05/05 06:53:50;;;;;;;25.65;13.57;;;;;;;11.82;78.66;101936.75;5257795;28;20074;-63
2022/05/05 06:56:24;;;;;;;24.70;15.55;;;;;;;11.92;78.75;101942.41;5253717;28;20562;-63
2022/05/05 06:58:55;;;;;;;26.67;17.27;;;;;;;12.08;78.64;101951.16;5251835;28;20033;-63
2022/05/05 07:07:06;;;;;;;39.90;22.88;;;;;;;12.87;79.00;101949.47;5252160;28;20028;-63
2022/05/05 07:12:27;;;;;;;47.28;27.98;;;;;;;13.19;78.74;101950.88;5252135;28;20036;-63
2022/05/05 07:14:59;;;;;;;43.80;27.02;;;;;;;13.27;78.10;101954.75;5251045;28;20048;-64
2022/05/05 07:17:30;;;;;;;38.28;24.52;;;;;;;13.48;76.19;101963.13;5248719;28;20048;-63
2022/05/05 07:20:02;;;;;;;40.67;24.88;;;;;;;13.65;74.76;101963.72;5251200;28;20239;-63
2022/05/05 07:22:33;;;;;;;42.50;26.85;;;;;;;13.78;73.66;101974.44;5253911;28;20087;-64
2022/05/05 07:25:05;;;;;;;41.13;27.17;;;;;;;13.87;73.25;101966.56;5252873;28;20016;-63
2022/05/05 07:27:37;;;;;;;43.72;27.27;;;;;;;14.05;72.03;101968.88;5252636;28;20059;-63
2022/05/05 07:30:08;;;;;;;43.33;27.38;;;;;;;14.25;73.17;101975.50;5255375;28;20024;-63
2022/05/05 07:32:40;;;;;;;47.20;30.55;;;;;;;14.45;74.75;101976.69;5252034;28;20387;-63
2022/05/05 07:35:11;;;;;;;44.05;28.25;;;;;;;14.67;73.19;101975.97;5254390;28;20029;-64
2022/05/05 07:37:43;;;;;;;45.13;28.60;;;;;;;14.85;72.77;101981.75;5252468;28;20056;-64
2022/05/05 07:40:14;;;;;;;40.70;26.17;;;;;;;14.85;70.26;101981.75;5253215;28;20047;-64
2022/05/05 07:42:45;;;;;;;44.80;29.17;;;;;;;15.06;70.73;101979.25;5251570;28;20074;-63
2022/05/05 07:45:17;;;;;;;44.35;28.17;;;;;;;15.27;72.66;101979.41;5250338;28;20033;-63
2022/05/05 07:47:49;;;;;;;48.35;30.50;;;;;;;15.54;70.43;101981.75;5251989;28;20032;-64
2022/05/05 07:50:20;;;;;;;43.47;28.63;;;;;;;15.88;68.60;101984.47;5247484;28;20029;-64
2022/05/05 07:52:52;;;;;;;46.70;29.40;;;;;;;16.14;65.86;101987.69;5252363;28;20045;-64
2022/05/05 07:55:23;;;;;;;43.53;28.38;;;;;;;16.33;67.01;101986.19;5247490;28;20703;-63
2022/05/05 07:57:54;;;;;;;42.30;28.13;;;;;;;16.53;66.38;101988.09;5252204;28;20554;-63
2022/05/05 08:00:25;;;;;;;45.25;30.13;;;;;;;16.64;64.54;101996.13;5250053;28;20033;-64
2022/05/05 08:02:57;;;;;;;39.38;26.83;;;;;;;16.70;64.47;102001.97;5246311;28;20032;-64
2022/05/05 08:05:28;;;;;;;42.78;27.73;;;;;;;16.74;62.46;101996.22;5255261;28;20659;-64
2022/05/05 08:07:59;;;;;;;41.13;26.98;;;;;;;16.92;63.47;101993.81;5252989;28;20029;-64
2022/05/05 08:10:31;;;;;;;38.72;26.73;;;;;;;16.98;63.71;101995.97;5253629;28;20029;-63
2022/05/05 08:13:05;;;;;;;43.15;28.80;;;;;;;16.69;61.02;101994.91;5250769;28;20027;-63
2022/05/05 08:15:37;;;;;;;39.53;27.40;;;;;;;16.78;63.71;101996.78;5253413;28;20045;-64
2022/05/05 08:18:08;;;;;;;41.45;28.73;;;;;;;16.83;64.00;102000.84;5246913;28;20039;-64
2022/05/05 08:20:39;;;;;;;43.85;28.15;;;;;;;16.72;62.77;101995.50;5254209;28;20064;-64
2022/05/05 08:23:12;;;;;;;46.17;29.85;;;;;;;16.57;63.35;101999.47;5251929;28;20056;-64
2022/05/05 08:28:36;;;;;;;44.05;29.35;;;;;;;16.26;63.09;102005.56;5251830;28;20040;-63
2022/05/05 08:31:08;;;;;;;46.35;31.17;;;;;;;16.23;63.85;102004.97;5250976;28;20033;-64
2022/05/05 08:33:39;;;;;;;42.45;29.25;;;;;;;16.01;63.60;102017.47;5249874;28;20062;-64
2022/05/05 08:36:10;;;;;;;47.83;31.00;;;;;;;15.83;64.66;102010.88;5253431;28;20220;-64
2022/05/05 08:38:42;;;;;;;46.00;30.30;;;;;;;15.66;69.20;102018.41;5250663;28;20422;-64
2022/05/05 08:41:13;;;;;;;46.70;30.17;;;;;;;15.75;66.90;102011.50;5254712;28;20040;-64
2022/05/05 08:43:45;;;;;;;45.97;30.45;;;;;;;15.63;66.32;102016.00;5250091;28;20100;-63
2022/05/05 08:46:22;;;;;;;44.85;30.10;;;;;;;15.67;66.26;102019.28;5246546;28;20564;-64
2022/05/05 08:49:01;;;;;;;43.08;30.02;;;;;;;15.60;65.55;102018.06;5250808;28;20444;-64
2022/05/05 08:51:45;;;;;;;46.22;29.65;;;;;;;15.63;65.92;102025.91;5249388;28;20075;-64
2022/05/05 08:54:16;;;;;;;41.30;28.30;;;;;;;15.57;64.79;102024.56;5248776;28;20410;-64
2022/05/05 08:56:49;;;;;;;42.03;28.77;;;;;;;15.47;66.05;102027.13;5258043;28;20039;-63
2022/05/05 08:59:21;;;;;;;39.88;28.48;;;;;;;15.71;65.11;102026.13;5249859;28;20559;-64
2022/05/05 09:01:53;;;;;;;43.42;29.92;;;;;;;15.73;66.64;102026.03;5249253;28;20025;-64
2022/05/05 09:04:24;;;;;;;44.78;30.60;;;;;;;15.85;65.78;102027.75;5244689;28;20394;-64
2022/05/05 09:06:55;;;;;;;42.70;28.83;;;;;;;15.86;66.23;102032.19;5253157;28;20095;-64
2022/05/05 09:09:31;;;;;;;45.22;30.42;;;;;;;16.01;65.09;102036.31;5252629;28;20055;-64
2022/05/05 09:12:15;;;;;;;44.35;28.63;;;;;;;16.22;65.96;102031.03;5257085;28;20033;-64
2022/05/05 09:14:48;;;;;;;41.67;27.75;;;;;;;16.31;64.31;102034.78;5250253;28;20155;-64
2022/05/05 09:17:21;;;;;;;40.17;28.85;;;;;;;16.35;63.11;102028.16;5255376;28;20301;-64
2022/05/05 09:19:54;;;;;;;46.78;29.27;;;;;;;16.39;63.80;102032.31;5251997;28;20120;-64
2022/05/05 09:22:27;;;;;;;41.03;28.10;;;;;;;16.24;63.37;102042.53;5256677;28;20021;-64
2022/05/05 09:24:58;;;;;;;43.33;28.77;;;;;;;16.21;63.98;102050.00;5255651;28;20054;-64
2022/05/05 09:27:32;;;;;;;46.40;30.30;;;;;;;16.27;66.12;102044.13;5246121;28;20479;-64
2022/05/05 09:30:14;;;;;;;40.08;28.33;;;;;;;16.45;64.42;102045.31;5252344;28;20467;-64
2022/05/05 09:32:47;;;;;;;42.38;29.15;;;;;;;16.39;62.59;102051.19;5252477;28;20033;-64
2022/05/05 09:35:19;;;;;;;43.63;28.90;;;;;;;16.47;62.53;102045.16;5250864;28;20042;-64
2022/05/05 09:37:54;;;;;;;48.35;30.75;;;;;;;16.48;63.77;102046.88;5251255;28;20291;-64
2022/05/05 09:40:28;;;;;;;40.75;29.15;;;;;;;16.68;63.57;102056.00;5249044;28;20029;-64
2022/05/05 09:43:01;;;;;;;44.72;29.50;;;;;;;16.69;64.29;102054.19;5256172;28;21190;-64
2022/05/05 09:45:34;;;;;;;44.97;29.35;;;;;;;16.87;63.90;102051.81;5252655;28;20025;-63
2022/05/05 09:48:07;;;;;;;42.60;30.83;;;;;;;16.98;61.91;102055.31;5249512;28;20193;-64
2022/05/05 09:50:39;;;;;;;41.45;28.88;;;;;;;17.16;61.63;102058.28;5248111;28;20423;-64
2022/05/05 09:58:59;;;;;;;44.78;29.08;;;;;;;17.72;60.71;102062.47;5252386;28;20037;-64
2022/05/05 10:01:33;;;;;;;44.13;29.52;;;;;;;17.91;59.16;102055.47;5251951;28;20445;-64
2022/05/05 10:04:05;;;;;;;42.03;30.05;;;;;;;17.97;58.39;102061.19;5248581;28;21447;-64
2022/05/05 10:06:41;;;;;;;40.85;29.10;;;;;;;18.12;59.38;102066.19;5247123;28;20428;-64
2022/05/05 10:09:14;;;;;;;47.28;30.88;;;;;;;18.15;58.31;102057.84;5249432;28;20033;-63
2022/05/05 10:11:46;;;;;;;43.05;29.08;;;;;;;18.30;58.18;102052.91;5252168;28;20048;-64
2022/05/05 10:14:20;;;;;;;38.38;28.45;;;;;;;18.44;58.06;102063.31;5251876;28;20045;-64
2022/05/05 10:16:52;;;;;;;42.42;31.23;;;;;;;18.52;57.66;102057.19;5247491;28;20035;-64
2022/05/05 10:19:23;;;;;;;45.75;33.05;;;;;;;18.36;56.96;102066.72;5244761;28;20475;-64
2022/05/05 10:22:11;;;;;;;42.90;31.08;;;;;;;18.32;59.10;102061.72;5251314;28;20033;-64
2022/05/05 10:25:01;;;;;;;39.65;29.75;;;;;;;18.37;58.77;102065.72;5245332;28;20391;-64
2022/05/05 10:27:32;;;;;;;41.30;30.45;;;;;;;18.26;56.48;102060.44;5248256;28;20017;-64
2022/05/05 10:30:13;;;;;;;43.33;30.60;;;;;;;18.06;57.76;102064.06;5247876;28;20021;-64
2022/05/05 10:32:44;;;;;;;44.10;31.58;;;;;;;18.03;58.14;102063.34;5250467;28;20078;-64
2022/05/05 10:35:15;;;;;;;40.95;30.63;;;;;;;18.26;59.31;102057.72;5243685;28;20033;-64
2022/05/05 10:37:47;;;;;;;41.17;30.57;;;;;;;18.15;57.81;102055.13;5246953;28;20590;-64
2022/05/05 10:40:18;;;;;;;45.00;31.90;;;;;;;18.08;57.71;102057.50;5246564;28;20372;-64
2022/05/05 10:42:51;;;;;;;39.85;30.25;;;;;;;18.40;58.79;102057.31;5249109;28;20124;-64
2022/05/05 10:45:32;;;;;;;39.95;29.67;;;;;;;18.54;57.45;102057.91;5246407;28;20077;-64
2022/05/05 10:48:06;;;;;;;39.92;29.08;;;;;;;18.52;55.25;102058.06;5248527;28;20033;-64
2022/05/05 10:50:53;;;;;;;39.97;29.98;;;;;;;18.40;56.73;102065.44;5246337;28;20032;-64
2022/05/05 10:53:34;;;;;;;41.10;29.38;;;;;;;18.47;57.75;102064.91;5245937;28;20536;-64
2022/05/05 10:56:27;;;;;;;40.25;28.42;;;;;;;18.69;57.36;102055.66;5247484;28;20088;-64
2022/05/05 10:59:09;;;;;;;38.70;28.35;;;;;;;18.77;57.00;102056.69;5245793;28;20525;-64
2022/05/05 11:01:46;;;;;;;40.55;28.02;;;;;;;18.53;56.05;102059.78;5245795;28;20493;-64
2022/05/05 11:04:18;;;;;;;38.88;28.85;;;;;;;18.65;54.25;102056.94;5248843;28;20036;-64
2022/05/05 11:07:23;;;;;;;40.13;29.35;;;;;;;18.84;54.46;102059.69;5246751;28;20029;-64
2022/05/05 11:09:54;;;;;;;;;;;;;;;19.05;54.56;102056.00;5247852;28;20468;-64
2022/05/05 11:12:32;;;;;;;37.50;27.77;;;;;;;18.75;54.66;102058.66;5249365;28;20003;-63
2022/05/05 11:23:47;;;;;;;36.55;28.23;;;;;;;18.97;56.88;102062.97;5251857;28;20029;-64
2022/05/05 11:26:20;;;;;;;38.10;28.20;;;;;;;19.02;52.06;102059.81;5250261;28;20039;-63
2022/05/05 11:28:52;;;;;;;37.08;27.88;;;;;;;19.00;52.64;102062.69;5245639;28;20479;-64
2022/05/05 11:31:26;;;;;;;36.53;27.05;;;;;;;19.00;52.60;102057.28;5245751;28;20058;-63
2022/05/05 11:34:00;;;;;;;;;;;;;;;19.29;53.56;102055.53;5250933;28;20083;-64
2022/05/05 11:36:33;;;;;;;39.70;27.52;;;;;;;19.29;55.44;102061.81;5249860;28;20381;-64
2022/05/05 11:39:06;;;;;;;38.25;28.77;;;;;;;19.14;53.09;102053.28;5252107;28;20475;-64
2022/05/05 11:41:37;;;;;;;37.22;28.08;;;;;;;19.55;53.42;102053.91;5249897;28;20033;-63
2022/05/05 11:44:14;;;;;;;35.63;27.08;;;;;;;19.51;52.92;102052.50;5250640;28;20498;-64
2022/05/05 11:46:46;;;;;;;34.55;27.10;;;;;;;19.64;51.63;102060.31;5245713;28;20054;-64
2022/05/05 11:49:18;;;;;;;34.47;25.70;;;;;;;19.60;53.81;102053.47;5247549;28;20203;-64
2022/05/05 11:51:49;;;;;;;35.22;26.13;;;;;;;19.66;51.07;102052.88;5254644;28;20041;-63
2022/05/05 11:54:34;;;;;;;32.35;24.00;;;;;;;19.55;51.93;102051.19;5252414;28;20029;-64
2022/05/05 11:57:05;;;;;;;29.73;23.25;;;;;;;19.53;53.34;102046.94;5249391;28;20029;-64
2022/05/05 12:02:29;;;;;;;32.30;23.92;;;;;;;19.52;50.55;102053.34;5244960;28;20398;-64
2022/05/05 12:05:01;;;;;;;33.58;24.98;;;;;;;19.46;49.56;102051.22;5249460;28;20114;-64
2022/05/05 12:07:34;;;;;;;30.35;24.00;;;;;;;19.29;48.58;102048.28;5251255;28;20104;-64
2022/05/05 12:10:07;;;;;;;31.52;23.90;;;;;;;19.11;49.73;102044.59;5249318;28;20029;-64
2022/05/05 12:12:43;;;;;;;30.98;24.70;;;;;;;18.97;50.83;102044.03;5247787;28;20033;-64
2022/05/05 12:15:21;;;;;;;31.73;24.48;;;;;;;19.07;52.58;102040.47;5243147;28;20123;-64
2022/05/05 12:17:57;;;;;;;31.65;25.02;;;;;;;19.00;53.01;102035.66;5247764;28;20112;-64
2022/05/05 12:20:30;;;;;;;35.28;27.20;;;;;;;18.80;53.43;102044.75;5250169;28;20025;-64
2022/05/05 12:23:02;;;;;;;34.88;26.88;;;;;;;18.67;51.66;102039.56;5253975;28;20029;-64